createdAt,value
2023-07-06T00:02:06.306Z,19.05
2023-07-06T00:04:33.416Z,18.90
2023-07-06T00:07:00.510Z,20.77
2023-07-06T00:09:27.810Z,22.50
2023-07-06T00:11:57.248Z,19.17
2023-07-06T00:14:25.795Z,19.45
2023-07-06T00:17:15.627Z,19.77
2023-07-06T00:19:43.372Z,20.17
2023-07-06T00:22:12.459Z,20.35
2023-07-06T00:24:43.064Z,21.27
2023-07-06T00:27:10.427Z,17.80
2023-07-06T00:29:47.349Z,17.60
2023-07-06T00:32:27.687Z,16.38
2023-07-06T00:34:56.754Z,19.58
2023-07-06T00:37:24.714Z,16.38
2023-07-06T00:39:52.477Z,19.70
2023-07-06T00:42:23.721Z,16.10
2023-07-06T00:45:00.100Z,18.90
2023-07-06T00:47:48.302Z,25.55
2023-07-06T00:50:22.377Z,19.40
2023-07-06T00:52:59.817Z,19.98
2023-07-06T00:55:33.498Z,20.85
2023-07-06T00:58:09.051Z,22.45
2023-07-06T01:00:42.364Z,21.05
2023-07-06T01:03:10.110Z,19.10
2023-07-06T01:05:41.014Z,16.67
2023-07-06T01:08:15.172Z,22.20
2023-07-06T01:10:43.192Z,18.98
2023-07-06T01:13:10.373Z,21.67
2023-07-06T01:15:50.038Z,23.75
2023-07-06T01:18:56.552Z,19.20
2023-07-06T01:21:38.692Z,19.30
2023-07-06T01:24:58.066Z,19.98
2023-07-06T01:27:37.820Z,22.83
2023-07-06T01:31:00.870Z,19.45
2023-07-06T01:33:37.479Z,19.77
2023-07-06T01:36:21.091Z,20.42
2023-07-06T01:43:00.720Z,16.45
2023-07-06T01:45:29.550Z,19.52
2023-07-06T01:48:05.298Z,16.80
2023-07-06T01:50:51.115Z,20.35
2023-07-06T01:53:22.825Z,18.75
2023-07-06T01:56:02.681Z,18.98
2023-07-06T01:59:01.743Z,19.50
2023-07-06T02:01:39.937Z,18.13
2023-07-06T02:04:09.236Z,20.38
2023-07-06T02:06:37.457Z,21.00
2023-07-06T02:09:06.501Z,23.73
2023-07-06T02:11:34.455Z,19.00
2023-07-06T02:14:01.550Z,17.92
2023-07-06T02:16:30.158Z,18.58
2023-07-06T02:19:00.040Z,19.77
2023-07-06T02:21:27.292Z,17.23
2023-07-06T02:23:54.406Z,17.58
2023-07-06T02:26:21.548Z,18.88
2023-07-06T02:28:48.718Z,21.52
2023-07-06T02:31:15.959Z,17.33
2023-07-06T02:33:43.608Z,18.08
2023-07-06T02:36:10.733Z,20.05
2023-07-06T02:38:38.529Z,16.63
2023-07-06T02:41:06.004Z,24.30
2023-07-06T02:43:33.742Z,16.83
2023-07-06T02:46:05.462Z,14.68
2023-07-06T02:48:32.626Z,12.82
2023-07-06T02:50:59.888Z,16.92
2023-07-06T02:53:28.716Z,17.88
2023-07-06T02:55:56.093Z,15.52
2023-07-06T02:58:23.863Z,15.10
2023-07-06T03:00:51.479Z,17.70
2023-07-06T03:03:18.673Z,13.73
2023-07-06T03:05:46.975Z,12.95
2023-07-06T03:08:14.289Z,13.25
2023-07-06T03:10:41.427Z,18.48
2023-07-06T03:13:08.897Z,13.02
2023-07-06T03:15:36.098Z,16.75
2023-07-06T03:18:03.502Z,15.73
2023-07-06T03:20:30.876Z,15.23
2023-07-06T03:22:58.252Z,16.75
2023-07-06T03:25:28.457Z,15.63
2023-07-06T03:27:57.324Z,19.60
2023-07-06T03:30:29.197Z,17.73
2023-07-06T03:33:00.429Z,18.30
2023-07-06T03:35:29.640Z,20.38
2023-07-06T03:37:59.928Z,21.98
2023-07-06T03:40:29.001Z,17.10
2023-07-06T03:42:57.732Z,22.60
2023-07-06T03:45:25.988Z,19.83
2023-07-06T03:47:53.489Z,23.05
2023-07-06T03:50:24.149Z,23.75
2023-07-06T03:52:51.223Z,23.02
2023-07-06T03:55:25.628Z,18.73
2023-07-06T04:00:24.191Z,20.52
2023-07-06T04:02:54.408Z,23.85
2023-07-06T04:05:26.792Z,19.20
2023-07-06T04:07:54.324Z,18.35
2023-07-06T04:10:23.367Z,18.40
2023-07-06T04:12:51.758Z,17.30
2023-07-06T04:15:20.086Z,19.05
2023-07-06T04:17:53.694Z,17.10
2023-07-06T04:20:26.490Z,17.67
2023-07-06T04:22:56.918Z,18.35
2023-07-06T04:25:31.976Z,15.48
2023-07-06T04:28:06.691Z,15.73
2023-07-06T04:30:41.959Z,18.73
2023-07-06T04:33:16.691Z,12.50
2023-07-06T04:35:44.540Z,15.27
2023-07-06T04:38:11.891Z,12.23
2023-07-06T04:40:42.943Z,12.45
2023-07-06T04:43:12.324Z,17.55
2023-07-06T04:45:39.533Z,15.82
2023-07-06T04:48:08.272Z,13.70
2023-07-06T04:50:38.929Z,16.48
2023-07-06T04:53:08.914Z,16.70
2023-07-06T04:55:37.130Z,17.20
2023-07-06T04:58:07.089Z,18.33
2023-07-06T05:00:39.055Z,14.23
2023-07-06T05:03:08.723Z,17.50
2023-07-06T05:05:53.706Z,13.13
2023-07-06T05:08:23.120Z,14.73
2023-07-06T05:10:53.541Z,10.30
2023-07-06T05:13:24.116Z,12.88
2023-07-06T05:15:53.379Z,7.90
2023-07-06T05:18:21.704Z,12.45
2023-07-06T05:20:51.565Z,11.07
2023-07-06T05:23:21.111Z,10.45
2023-07-06T05:25:54.039Z,14.45
2023-07-06T05:28:22.494Z,11.93
2023-07-06T05:30:50.579Z,8.13
2023-07-06T05:33:19.194Z,8.02
2023-07-06T05:35:48.990Z,9.77
2023-07-06T05:38:18.130Z,11.15
2023-07-06T05:40:45.209Z,7.93
2023-07-06T05:43:12.318Z,10.55
2023-07-06T05:45:39.567Z,8.00
2023-07-06T05:48:06.838Z,10.57
2023-07-06T05:50:34.067Z,6.93
2023-07-06T05:53:03.447Z,10.43
2023-07-06T05:55:33.359Z,10.52
2023-07-06T05:58:00.767Z,7.30
2023-07-06T06:00:27.936Z,9.43
2023-07-06T06:02:55.846Z,9.40
2023-07-06T06:05:22.918Z,9.70
2023-07-06T06:07:50.181Z,9.43
2023-07-06T06:10:17.268Z,8.95
2023-07-06T06:12:46.258Z,8.02
2023-07-06T06:15:13.378Z,9.75
2023-07-06T06:17:41.630Z,8.05
2023-07-06T06:20:12.004Z,6.70
2023-07-06T06:22:41.235Z,9.43
2023-07-06T06:25:09.157Z,7.60
2023-07-06T06:27:36.551Z,11.27
2023-07-06T06:30:06.508Z,9.02
2023-07-06T06:32:36.460Z,8.23
2023-07-06T06:35:04.527Z,8.95
2023-07-06T06:37:31.727Z,6.88
2023-07-06T06:40:00.663Z,9.73
2023-07-06T06:42:29.829Z,8.10
2023-07-06T06:44:59.067Z,7.50
2023-07-06T06:47:26.309Z,8.07
2023-07-06T06:49:54.177Z,6.32
2023-07-06T06:52:21.923Z,7.32
2023-07-06T06:54:51.913Z,6.50
2023-07-06T06:57:19.097Z,9.30
2023-07-06T06:59:48.721Z,8.80
2023-07-06T07:02:16.986Z,9.55
2023-07-06T07:04:44.439Z,6.80
2023-07-06T07:07:12.227Z,6.63
2023-07-06T07:09:39.376Z,5.32
2023-07-06T07:12:07.402Z,9.38
2023-07-06T07:14:34.574Z,6.90
2023-07-06T07:17:03.849Z,8.13
2023-07-06T07:19:30.892Z,7.63
2023-07-06T07:22:02.012Z,8.48
2023-07-06T07:24:33.757Z,6.57
2023-07-06T07:27:01.868Z,8.00
2023-07-06T07:29:29.630Z,7.05
2023-07-06T07:31:56.801Z,6.78
2023-07-06T07:34:24.087Z,6.78
2023-07-06T07:36:52.057Z,5.85
2023-07-06T07:39:19.479Z,6.70
2023-07-06T07:41:47.354Z,5.65
2023-07-06T07:44:16.756Z,8.63
2023-07-06T07:46:45.212Z,5.78
2023-07-06T07:49:12.704Z,5.90
2023-07-06T07:51:40.582Z,7.38
2023-07-06T07:54:07.822Z,8.00
2023-07-06T07:56:36.499Z,6.05
2023-07-06T07:59:03.686Z,5.68
2023-07-06T08:01:31.667Z,9.93
2023-07-06T08:03:58.890Z,4.70
2023-07-06T08:06:26.243Z,6.15
2023-07-06T08:08:53.706Z,7.45
2023-07-06T08:11:25.712Z,5.78
2023-07-06T08:13:57.333Z,8.85
2023-07-06T08:16:25.620Z,6.93
2023-07-06T08:18:57.373Z,5.75
2023-07-06T08:22:00.118Z,7.97
2023-07-06T08:24:25.796Z,7.95
2023-07-06T08:26:52.910Z,8.13
2023-07-06T08:29:19.912Z,6.38
2023-07-06T08:31:49.097Z,6.13
2023-07-06T08:34:18.065Z,7.25
2023-07-06T08:36:47.229Z,5.88
2023-07-06T08:39:16.059Z,7.03
2023-07-06T08:41:49.347Z,6.18
2023-07-06T08:44:20.458Z,5.40
2023-07-06T08:46:50.240Z,4.93
2023-07-06T08:49:33.240Z,5.68
2023-07-06T08:54:43.880Z,7.43
2023-07-06T08:57:17.826Z,5.60
2023-07-06T08:59:50.405Z,5.68
2023-07-06T09:02:22.807Z,9.52
2023-07-06T09:04:55.442Z,5.97
2023-07-06T09:07:36.000Z,8.88
2023-07-06T09:10:24.440Z,8.30
2023-07-06T09:12:57.983Z,4.30
2023-07-06T09:15:30.208Z,7.25
2023-07-06T09:18:04.714Z,6.60
2023-07-06T09:20:36.273Z,5.68
2023-07-06T09:23:07.195Z,8.20
2023-07-06T09:25:41.465Z,5.53
2023-07-06T09:28:19.255Z,6.35
2023-07-06T09:30:49.645Z,6.32
2023-07-06T09:33:28.523Z,7.35
2023-07-06T09:35:59.260Z,6.32
2023-07-06T09:38:31.414Z,7.30
2023-07-06T09:40:58.693Z,9.43
2023-07-06T09:43:31.404Z,5.60
2023-07-06T09:46:03.139Z,6.95
2023-07-06T09:48:38.567Z,8.23
2023-07-06T09:51:23.138Z,7.53
2023-07-06T09:54:08.074Z,5.10
2023-07-06T09:56:35.239Z,5.60
2023-07-06T09:59:04.298Z,7.70
2023-07-06T10:01:52.406Z,6.60
2023-07-06T10:05:22.423Z,6.65
2023-07-06T10:08:07.203Z,9.00
2023-07-06T10:10:45.472Z,9.90
2023-07-06T10:13:39.840Z,5.72
2023-07-06T10:16:25.878Z,6.40
2023-07-06T10:19:04.694Z,4.22
2023-07-06T10:21:31.543Z,5.65
2023-07-06T10:24:19.574Z,4.90
2023-07-06T10:26:56.101Z,7.80
2023-07-06T10:29:42.888Z,6.47
2023-07-06T10:32:16.255Z,5.65
2023-07-06T10:35:11.783Z,5.93
2023-07-06T10:37:42.782Z,12.02
2023-07-06T10:40:30.611Z,7.32
2023-07-06T10:43:24.740Z,4.13
2023-07-06T10:46:01.326Z,6.22
2023-07-06T10:48:36.902Z,7.20
2023-07-06T10:51:21.677Z,5.57
2023-07-06T10:54:18.492Z,6.35
2023-07-06T10:57:11.813Z,6.35
2023-07-06T10:59:53.023Z,4.40
2023-07-06T11:02:35.171Z,7.10
2023-07-06T11:05:17.217Z,6.38
2023-07-06T11:07:48.227Z,5.70
2023-07-06T11:10:15.426Z,5.18
2023-07-06T11:13:02.623Z,5.50
2023-07-06T11:15:50.253Z,5.32
2023-07-06T11:18:20.233Z,7.18
2023-07-06T11:21:22.030Z,5.10
2023-07-06T11:24:17.870Z,5.70
2023-07-06T11:26:49.921Z,6.50
2023-07-06T11:29:22.426Z,6.00
2023-07-06T11:31:49.542Z,6.95
2023-07-06T11:34:38.105Z,4.88
2023-07-06T11:37:27.696Z,5.85
2023-07-06T11:40:16.980Z,8.55
2023-07-06T11:43:03.448Z,7.47
2023-07-06T11:45:52.723Z,6.03
2023-07-06T11:48:46.513Z,11.30
2023-07-06T11:51:14.751Z,4.78
2023-07-06T11:53:55.569Z,6.35
2023-07-06T11:56:46.047Z,6.53
2023-07-06T11:59:43.470Z,4.88
2023-07-06T12:02:21.921Z,6.20
2023-07-06T12:04:51.470Z,5.57
2023-07-06T12:07:30.330Z,6.70
2023-07-06T12:10:04.706Z,6.82
2023-07-06T12:12:34.288Z,6.18
2023-07-06T12:15:05.543Z,8.27
2023-07-06T12:17:33.332Z,6.25
2023-07-06T12:20:00.548Z,6.47
2023-07-06T12:22:28.984Z,6.72
2023-07-06T12:24:59.158Z,5.57
2023-07-06T12:27:29.216Z,6.00
2023-07-06T12:30:07.912Z,4.28
2023-07-06T12:32:36.915Z,7.75
2023-07-06T12:35:06.014Z,8.57
2023-07-06T12:37:33.249Z,3.70
2023-07-06T12:40:00.694Z,3.95
2023-07-06T12:42:28.016Z,18.40
2023-07-06T12:44:56.052Z,7.55
2023-07-06T12:47:38.539Z,6.30
2023-07-06T12:50:27.149Z,5.53
2023-07-06T12:53:14.631Z,4.50
2023-07-06T12:55:45.320Z,5.28
2023-07-06T12:58:37.674Z,6.57
2023-07-06T13:01:19.554Z,4.20
2023-07-06T13:03:53.950Z,15.18
2023-07-06T13:06:25.943Z,4.00
2023-07-06T13:09:02.603Z,8.73
2023-07-06T13:11:29.764Z,5.32
2023-07-06T13:14:05.819Z,3.83
2023-07-06T13:16:44.889Z,8.40
2023-07-06T13:19:13.715Z,5.20
2023-07-06T13:21:42.072Z,3.67
2023-07-06T13:24:17.400Z,4.18
2023-07-06T13:26:44.521Z,4.45
2023-07-06T13:29:13.508Z,3.88
2023-07-06T13:31:53.524Z,8.63
2023-07-06T13:34:23.392Z,7.80
2023-07-06T13:36:50.495Z,4.50
2023-07-06T13:39:17.684Z,26.10
2023-07-06T13:41:44.806Z,6.50
2023-07-06T13:44:12.079Z,8.40
2023-07-06T13:46:39.543Z,4.32
2023-07-06T13:49:07.625Z,8.48
2023-07-06T13:51:34.656Z,6.07
2023-07-06T13:54:01.985Z,8.43
2023-07-06T13:56:29.101Z,6.07
2023-07-06T13:58:56.339Z,6.07
2023-07-06T14:01:24.663Z,5.32
2023-07-06T14:03:54.014Z,4.82
2023-07-06T14:06:21.674Z,7.75
2023-07-06T14:08:48.762Z,4.25
2023-07-06T14:11:16.916Z,6.28
2023-07-06T14:13:46.248Z,17.15
2023-07-06T14:16:14.573Z,6.28
2023-07-06T14:18:41.718Z,7.28
2023-07-06T14:21:08.888Z,7.47
2023-07-06T14:23:38.232Z,8.30
2023-07-06T14:26:05.663Z,5.32
2023-07-06T14:28:33.063Z,6.90
2023-07-06T14:31:04.193Z,8.93
2023-07-06T14:33:32.051Z,7.25
2023-07-06T14:38:53.985Z,9.30
2023-07-06T14:41:21.046Z,9.85
2023-07-06T14:43:48.249Z,9.77
2023-07-06T14:46:16.005Z,4.82
2023-07-06T14:48:43.062Z,10.85
2023-07-06T14:51:11.164Z,8.73
2023-07-06T14:53:40.444Z,5.45
2023-07-06T14:56:07.949Z,5.15
2023-07-06T14:58:35.241Z,5.25
2023-07-06T15:01:02.437Z,4.28
2023-07-06T15:03:30.066Z,7.30
2023-07-06T15:06:08.232Z,4.65
2023-07-06T15:08:36.597Z,4.60
2023-07-06T15:11:03.644Z,3.58
2023-07-06T15:13:31.943Z,6.93
2023-07-06T15:16:01.154Z,11.93
2023-07-06T15:18:28.953Z,8.52
2023-07-06T15:21:12.851Z,5.50
2023-07-06T15:23:42.728Z,8.05
2023-07-06T15:26:12.359Z,4.00
2023-07-06T15:28:40.470Z,10.07
2023-07-06T15:31:09.854Z,6.32
2023-07-06T15:33:39.139Z,7.55
2023-07-06T15:36:06.853Z,7.55
2023-07-06T15:38:34.116Z,7.28
2023-07-06T15:41:01.358Z,5.80
2023-07-06T15:43:28.745Z,14.88
2023-07-06T15:45:57.437Z,6.00
2023-07-06T15:48:24.927Z,6.88
2023-07-06T15:50:53.705Z,8.15
2023-07-06T15:53:22.240Z,6.82
2023-07-06T15:55:49.396Z,5.85
2023-07-06T15:58:16.732Z,3.20
2023-07-06T16:00:50.973Z,6.63
2023-07-06T16:03:18.173Z,5.47
2023-07-06T16:05:46.798Z,3.85
2023-07-06T16:08:15.397Z,4.63
2023-07-06T16:10:47.807Z,5.85
2023-07-06T16:13:16.155Z,5.38
2023-07-06T16:15:43.666Z,4.13
2023-07-06T16:18:11.344Z,8.00
2023-07-06T16:20:39.227Z,12.75
2023-07-06T16:23:06.997Z,17.20
2023-07-06T16:25:34.297Z,11.43
2023-07-06T16:28:03.149Z,14.82
2023-07-06T16:30:30.327Z,14.85
2023-07-06T16:32:57.562Z,12.75
2023-07-06T16:35:24.636Z,11.35
2023-07-06T16:37:51.663Z,8.85
2023-07-06T16:40:18.853Z,9.55
2023-07-06T16:42:45.972Z,13.60
2023-07-06T16:45:12.930Z,17.35
2023-07-06T16:47:40.072Z,17.17
2023-07-06T16:50:07.866Z,8.13
2023-07-06T16:52:34.800Z,10.00
2023-07-06T16:55:01.959Z,15.45
2023-07-06T16:57:28.902Z,9.05
2023-07-06T16:59:56.371Z,11.55
2023-07-06T17:02:23.485Z,9.50
2023-07-06T17:04:50.482Z,9.00
2023-07-06T17:07:18.420Z,7.80
2023-07-06T17:09:45.443Z,8.43
2023-07-06T17:12:13.644Z,11.75
2023-07-06T17:14:41.718Z,11.05
2023-07-06T17:17:08.662Z,25.40
2023-07-06T17:19:35.886Z,6.95
2023-07-06T17:22:03.037Z,8.60
2023-07-06T17:24:30.165Z,8.55
2023-07-06T17:26:57.156Z,9.65
2023-07-06T17:29:24.364Z,9.55
2023-07-06T17:31:51.561Z,7.45
2023-07-06T17:34:18.844Z,11.88
2023-07-06T17:36:46.222Z,11.48
2023-07-06T17:39:13.606Z,11.20
2023-07-06T17:41:41.382Z,10.50
2023-07-06T17:44:12.317Z,9.63
2023-07-06T17:46:39.577Z,9.98
2023-07-06T17:49:07.354Z,7.97
2023-07-06T17:51:35.062Z,9.50
2023-07-06T17:54:02.253Z,13.50
2023-07-06T17:56:29.493Z,27.13
2023-07-06T17:58:56.770Z,14.15
2023-07-06T18:01:23.986Z,8.60
2023-07-06T18:03:52.013Z,7.05
2023-07-06T18:06:19.351Z,9.00
2023-07-06T18:08:46.403Z,9.80
2023-07-06T18:11:13.663Z,9.65
2023-07-06T18:13:40.726Z,13.45
2023-07-06T18:16:08.170Z,7.22
2023-07-06T18:18:35.546Z,9.60
2023-07-06T18:21:03.279Z,11.18
2023-07-06T18:23:30.343Z,11.63
2023-07-06T18:26:00.861Z,10.15
2023-07-06T18:28:28.798Z,9.63
2023-07-06T18:30:56.729Z,19.58
2023-07-06T18:33:24.779Z,13.57
2023-07-06T18:35:52.909Z,10.32
2023-07-06T18:38:21.639Z,9.57
2023-07-06T18:41:02.014Z,10.60
2023-07-06T18:43:30.058Z,8.65
2023-07-06T18:46:02.571Z,8.43
2023-07-06T18:48:32.146Z,8.90
2023-07-06T18:50:59.430Z,11.45
2023-07-06T18:53:40.577Z,6.40
2023-07-06T18:56:12.548Z,10.05
2023-07-06T18:58:40.283Z,11.57
2023-07-06T19:01:07.997Z,9.50
2023-07-06T19:03:36.392Z,7.05
2023-07-06T19:06:15.413Z,10.35
2023-07-06T19:08:45.301Z,10.73
2023-07-06T19:11:14.803Z,13.10
2023-07-06T19:13:42.772Z,12.13
2023-07-06T19:16:10.342Z,9.98
2023-07-06T19:18:38.548Z,9.93
2023-07-06T19:21:05.775Z,8.40
2023-07-06T19:23:32.761Z,9.73
2023-07-06T19:26:00.315Z,8.15
2023-07-06T19:28:27.624Z,9.88
2023-07-06T19:30:55.141Z,9.38
2023-07-06T19:33:22.239Z,8.95
2023-07-06T19:35:49.684Z,8.23
2023-07-06T19:38:16.945Z,10.13
2023-07-06T19:40:55.138Z,8.75
2023-07-06T19:43:23.440Z,8.48
2023-07-06T19:45:50.824Z,8.73
2023-07-06T19:48:20.652Z,9.38
2023-07-06T19:50:48.743Z,12.13
2023-07-06T19:53:16.069Z,10.65
2023-07-06T19:55:43.155Z,10.07
2023-07-06T19:58:10.489Z,11.40
2023-07-06T20:00:38.092Z,16.25
2023-07-06T20:03:05.427Z,15.98
2023-07-06T20:05:37.785Z,11.35
2023-07-06T20:08:06.509Z,12.30
2023-07-06T20:10:34.049Z,13.73
2023-07-06T20:13:01.612Z,13.65
2023-07-06T20:15:31.136Z,13.77
2023-07-06T20:18:00.231Z,13.18
2023-07-06T20:20:29.719Z,10.60
2023-07-06T20:22:56.791Z,8.50
2023-07-06T20:25:23.985Z,12.23
2023-07-06T20:27:51.130Z,9.43
2023-07-06T20:30:21.207Z,13.52
2023-07-06T20:32:48.426Z,18.83
2023-07-06T20:35:17.686Z,18.95
2023-07-06T20:37:44.827Z,12.27
2023-07-06T20:40:12.353Z,13.85
2023-07-06T20:42:39.512Z,10.88
2023-07-06T20:45:07.410Z,11.43
2023-07-06T20:47:34.568Z,12.38
2023-07-06T20:50:01.821Z,11.75
2023-07-06T20:52:28.871Z,9.30
2023-07-06T20:54:56.735Z,12.02
2023-07-06T20:57:23.995Z,11.05
2023-07-06T20:59:52.622Z,9.98
2023-07-06T21:02:19.988Z,14.00
2023-07-06T21:04:47.046Z,16.95
2023-07-06T21:07:14.637Z,15.80
2023-07-06T21:09:41.761Z,15.10
2023-07-06T21:12:09.367Z,12.88
2023-07-06T21:14:36.778Z,22.83
2023-07-06T21:17:03.922Z,15.35
2023-07-06T21:19:30.921Z,14.35
2023-07-06T21:21:58.032Z,12.80
2023-07-06T21:24:25.515Z,13.23
2023-07-06T21:26:52.679Z,9.23
2023-07-06T21:29:20.434Z,10.98
2023-07-06T21:31:48.013Z,9.65
2023-07-06T21:34:16.873Z,13.05
2023-07-06T21:36:44.421Z,8.93
2023-07-06T21:39:13.109Z,8.85
2023-07-06T21:41:41.083Z,11.43
2023-07-06T21:44:08.685Z,9.55
2023-07-06T21:46:36.101Z,11.15
2023-07-06T21:49:03.489Z,8.65
2023-07-06T21:51:30.589Z,8.98
2023-07-06T21:53:57.647Z,9.68
2023-07-06T21:56:24.710Z,8.10
2023-07-06T21:58:52.793Z,8.02
2023-07-06T22:01:21.258Z,9.20
2023-07-06T22:03:51.436Z,10.68
2023-07-06T22:06:21.960Z,10.05
2023-07-06T22:08:50.130Z,10.13
2023-07-06T22:11:26.114Z,11.23
2023-07-06T22:13:53.304Z,12.38
2023-07-06T22:16:21.568Z,12.55
2023-07-06T22:18:48.842Z,11.05
2023-07-06T22:21:17.375Z,11.80
2023-07-06T22:23:45.687Z,12.65
2023-07-06T22:26:14.071Z,16.55
2023-07-06T22:28:41.403Z,18.48
2023-07-06T22:31:10.744Z,16.42
2023-07-06T22:33:40.455Z,16.92
2023-07-06T22:36:11.458Z,18.88
2023-07-06T22:38:41.978Z,20.92
2023-07-06T22:41:10.138Z,14.82
2023-07-06T22:43:37.888Z,19.92
2023-07-06T22:46:05.603Z,16.67
2023-07-06T22:48:32.598Z,15.75
2023-07-06T22:51:02.497Z,11.95
2023-07-06T22:53:31.287Z,15.07
2023-07-06T22:55:59.499Z,15.55
2023-07-06T22:58:26.774Z,15.15
2023-07-06T23:00:54.113Z,16.75
2023-07-06T23:03:22.373Z,18.45
2023-07-06T23:05:49.989Z,13.98
2023-07-06T23:08:17.093Z,12.23
2023-07-06T23:10:45.906Z,13.00
2023-07-06T23:13:14.359Z,12.38
2023-07-06T23:15:45.598Z,11.10
2023-07-06T23:18:13.474Z,12.27
2023-07-06T23:20:41.880Z,12.70
2023-07-06T23:23:08.928Z,15.57
2023-07-06T23:25:40.077Z,15.55
2023-07-06T23:28:11.266Z,10.63
2023-07-06T23:30:39.161Z,12.18
2023-07-06T23:33:10.236Z,14.13
2023-07-06T23:35:46.757Z,10.93
2023-07-06T23:38:15.281Z,11.15
2023-07-06T23:40:54.849Z,12.57
2023-07-06T23:43:22.080Z,15.27
2023-07-06T23:45:49.440Z,13.88
2023-07-06T23:48:16.683Z,15.77
2023-07-06T23:50:44.101Z,15.75
2023-07-06T23:53:11.111Z,13.40
2023-07-06T23:55:38.293Z,11.25
2023-07-06T23:58:05.417Z,11.73
